ADDS METAR Data INFO
IDs: Format: Raw Decoded Include TAF

Data at: 0308 UTC 17 Jan 2018

KHRL 162352Z 35019KT 2SM UP BR SCT009 BKN014 M01/M02 A3062